Time;durP1;ratioP1;P1;durP2;ratioP2;P2;SDS_P1;SDS_P2;PMS_P1;PMS_P2;Temp;Humidity;BMP_temperature;BMP_pressure;BME280_temperature;BME280_humidity;BME280_pressure;Samples;Min_cycle;Max_cycle;Signal;HPM_P1;HPM_P2
2021/10/12 00:01:36;;;;;;;6.77;5.20;;;;;;;;;;5067831;28;24849;-60
2021/10/12 00:04:01;;;;;;;4.50;4.20;;;;;;;;;;5085655;28;24476;-60
2021/10/12 00:06:26;;;;;;;4.13;3.83;;;;;;;;;;5086636;28;24422;-60
2021/10/12 00:08:52;;;;;;;4.40;4.00;;;;;;;;;;5075442;28;24467;-60
2021/10/12 00:11:17;;;;;;;5.37;4.87;;;;;;;;;;5084405;28;24438;-60
2021/10/12 00:13:42;;;;;;;4.57;4.18;;;;;;;;;;5082887;28;24986;-60
2021/10/12 00:16:07;;;;;;;6.07;4.40;;;;;;;;;;5073101;28;25050;-60
2021/10/12 00:18:32;;;;;;;6.00;4.60;;;;;;;;;;5082711;28;24429;-60
2021/10/12 00:20:57;;;;;;;5.73;4.67;;;;;;;;;;5086793;28;24410;-60
2021/10/12 00:23:23;;;;;;;5.70;4.88;;;;;;;;;;5069768;28;25032;-60
2021/10/12 00:25:48;;;;;;;5.00;4.20;;;;;;;;;;5067476;28;24563;-60
2021/10/12 00:28:13;;;;;;;4.90;4.43;;;;;;;;;;5071531;28;24429;-60
2021/10/12 00:30:38;;;;;;;4.93;4.30;;;;;;;;;;5070361;28;24449;-60
2021/10/12 00:33:04;;;;;;;4.50;4.20;;;;;;;;;;5084194;28;24419;-60
2021/10/12 00:35:29;;;;;;;5.10;4.60;;;;;;;;;;5082393;28;24407;-60
2021/10/12 00:37:54;;;;;;;5.20;4.70;;;;;;;;;;5076520;28;25019;-60
2021/10/12 00:40:19;;;;;;;7.32;5.53;;;;;;;;;;5069428;28;24564;-60
2021/10/12 00:42:44;;;;;;;6.68;5.65;;;;;;;;;;5067197;28;24480;-60
2021/10/12 00:45:11;;;;;;;5.50;5.00;;;;;;;;;;5074691;28;24993;-60
2021/10/12 00:47:36;;;;;;;5.70;5.20;;;;;;;;;;5086299;28;24425;-60
2021/10/12 00:50:03;;;;;;;6.03;5.43;;;;;;;;;;5067790;28;24430;-60
2021/10/12 00:52:28;;;;;;;6.47;5.78;;;;;;;;;;5068628;28;24425;-60
2021/10/12 00:54:53;;;;;;;5.90;5.40;;;;;;;;;;5080450;28;24411;-60
2021/10/12 00:57:18;;;;;;;6.65;5.85;;;;;;;;;;5071724;28;24402;-60
2021/10/12 00:59:44;;;;;;;6.93;5.97;;;;;;;;;;5084094;28;24511;-60
2021/10/12 01:02:09;;;;;;;8.05;6.55;;;;;;;;;;5072804;28;24456;-61
2021/10/12 01:04:34;;;;;;;6.70;6.20;;;;;;;;;;5074835;28;24406;-60
2021/10/12 01:07:00;;;;;;;8.03;6.10;;;;;;;;;;5071891;28;24482;-60
2021/10/12 01:09:25;;;;;;;6.90;6.07;;;;;;;;;;5069551;28;24497;-60
2021/10/12 01:11:50;;;;;;;6.50;5.90;;;;;;;;;;5073381;28;25273;-60
2021/10/12 01:14:15;;;;;;;8.23;6.50;;;;;;;;;;5066512;28;24418;-58
2021/10/12 01:16:40;;;;;;;8.50;6.07;;;;;;;;;;5080256;28;25084;-58
2021/10/12 01:19:07;;;;;;;5.83;5.33;;;;;;;;;;5081317;28;24410;-58
2021/10/12 01:21:40;;;;;;;7.25;6.55;;;;;;;;;;5084497;28;24515;-58
2021/10/12 01:24:05;;;;;;;7.33;6.63;;;;;;;;;;5079467;28;24526;-58
2021/10/12 01:26:32;;;;;;;7.10;6.50;;;;;;;;;;5081769;28;24418;-58
2021/10/12 01:28:57;;;;;;;7.88;7.07;;;;;;;;;;5071777;28;24410;-58
2021/10/12 01:31:23;;;;;;;6.20;5.60;;;;;;;;;;5070637;28;24984;-59
2021/10/12 01:33:48;;;;;;;7.30;6.60;;;;;;;;;;5085721;28;24412;-58
2021/10/12 01:36:13;;;;;;;7.70;6.30;;;;;;;;;;5073778;28;24494;-59
2021/10/12 01:38:39;;;;;;;6.80;6.20;;;;;;;;;;5083250;28;24982;-59
2021/10/12 01:41:05;;;;;;;7.53;6.82;;;;;;;;;;5089825;28;24444;-58
2021/10/12 01:43:30;;;;;;;6.65;5.95;;;;;;;;;;5083650;28;24419;-59
2021/10/12 01:45:57;;;;;;;7.53;6.82;;;;;;;;;;5071456;28;24768;-58
2021/10/12 01:48:23;;;;;;;7.47;5.13;;;;;;;;;;5081014;28;24419;-58
2021/10/12 01:50:48;;;;;;;6.22;5.72;;;;;;;;;;5077446;28;24616;-58
2021/10/12 01:53:13;;;;;;;6.57;5.97;;;;;;;;;;5073883;28;24410;-59
2021/10/12 01:55:38;;;;;;;6.70;6.10;;;;;;;;;;5088520;28;24472;-59
2021/10/12 01:58:03;;;;;;;7.40;5.80;;;;;;;;;;5076847;28;24414;-59
2021/10/12 02:00:28;;;;;;;7.60;6.90;;;;;;;;;;5084898;28;24429;-59
2021/10/12 02:02:53;;;;;;;7.60;6.80;;;;;;;;;;5089229;28;24418;-59
2021/10/12 02:05:19;;;;;;;8.43;7.60;;;;;;;;;;5088238;28;24426;-59
2021/10/12 02:07:44;;;;;;;7.37;6.40;;;;;;;;;;5089550;28;24397;-59
2021/10/12 02:10:09;;;;;;;7.55;6.85;;;;;;;;;;5085974;28;24438;-59
2021/10/12 02:12:34;;;;;;;7.60;6.90;;;;;;;;;;5076819;28;24611;-59
2021/10/12 02:14:59;;;;;;;6.77;6.17;;;;;;;;;;5080548;28;24412;-58
2021/10/12 02:17:25;;;;;;;6.43;5.83;;;;;;;;;;5077425;28;24506;-59
2021/10/12 02:19:50;;;;;;;7.70;6.43;;;;;;;;;;5069412;28;24457;-59
2021/10/12 02:22:15;;;;;;;7.00;6.30;;;;;;;;;;5069370;28;24909;-58
2021/10/12 02:24:40;;;;;;;6.90;6.20;;;;;;;;;;5069420;28;25012;-58
2021/10/12 02:27:05;;;;;;;7.40;6.70;;;;;;;;;;5083048;28;24464;-59
2021/10/12 02:29:30;;;;;;;6.90;6.30;;;;;;;;;;5077860;28;24438;-59
2021/10/12 02:31:55;;;;;;;8.07;6.88;;;;;;;;;;5078393;28;24566;-58
2021/10/12 02:34:21;;;;;;;6.90;6.10;;;;;;;;;;5088856;27;24402;-59
2021/10/12 02:36:46;;;;;;;6.30;5.70;;;;;;;;;;5081745;28;24411;-58
2021/10/12 02:39:11;;;;;;;6.43;5.68;;;;;;;;;;5084689;28;24410;-59
2021/10/12 02:41:36;;;;;;;6.70;6.00;;;;;;;;;;5080536;28;24418;-59
2021/10/12 02:44:01;;;;;;;6.70;6.07;;;;;;;;;;5077677;28;24520;-59
2021/10/12 02:46:27;;;;;;;6.57;5.97;;;;;;;;;;5071185;28;24425;-59
2021/10/12 02:48:52;;;;;;;7.67;6.50;;;;;;;;;;5079984;28;24478;-58
2021/10/12 02:51:17;;;;;;;8.50;7.70;;;;;;;;;;5080084;28;24434;-58
2021/10/12 02:53:42;;;;;;;7.67;6.60;;;;;;;;;;5072433;28;24415;-59
2021/10/12 02:56:07;;;;;;;6.57;5.97;;;;;;;;;;5069817;28;24407;-59
2021/10/12 02:58:33;;;;;;;8.45;7.07;;;;;;;;;;5069675;28;24446;-59
2021/10/12 03:00:58;;;;;;;8.07;6.95;;;;;;;;;;5074214;28;24484;-59
2021/10/12 03:03:23;;;;;;;7.20;6.50;;;;;;;;;;5076306;28;24780;-59
2021/10/12 03:05:48;;;;;;;7.37;6.67;;;;;;;;;;5088359;28;24407;-59
2021/10/12 03:08:13;;;;;;;7.50;6.50;;;;;;;;;;5074590;28;24956;-59
2021/10/12 03:10:39;;;;;;;7.30;6.60;;;;;;;;;;5079132;28;24438;-59
2021/10/12 03:13:04;;;;;;;6.40;5.80;;;;;;;;;;5085096;28;24460;-59
2021/10/12 03:15:29;;;;;;;6.53;5.93;;;;;;;;;;5082321;28;24426;-59
2021/10/12 03:17:54;;;;;;;7.60;6.90;;;;;;;;;;5080611;28;24459;-59
2021/10/12 03:20:21;;;;;;;7.80;7.00;;;;;;;;;;5084864;28;24431;-59
2021/10/12 03:22:46;;;;;;;7.07;6.40;;;;;;;;;;5083498;28;24768;-59
2021/10/12 03:25:11;;;;;;;6.30;5.70;;;;;;;;;;5076909;28;24461;-59
2021/10/12 03:27:37;;;;;;;6.65;6.05;;;;;;;;;;5083549;28;24892;-59
2021/10/12 03:30:03;;;;;;;7.23;6.50;;;;;;;;;;5081934;28;24446;-59
2021/10/12 03:32:28;;;;;;;7.28;6.57;;;;;;;;;;5077771;28;25069;-60
2021/10/12 03:34:53;;;;;;;7.00;6.30;;;;;;;;;;5077002;28;24514;-59
2021/10/12 03:37:18;;;;;;;7.50;6.70;;;;;;;;;;5073646;28;24772;-59
2021/10/12 03:39:43;;;;;;;7.65;6.40;;;;;;;;;;5087888;28;24779;-59
2021/10/12 03:42:08;;;;;;;6.95;6.20;;;;;;;;;;5075679;28;25218;-59
2021/10/12 03:44:34;;;;;;;9.43;6.87;;;;;;;;;;5076610;28;24418;-58
2021/10/12 03:46:59;;;;;;;7.80;7.07;;;;;;;;;;5079384;28;24432;-59
2021/10/12 03:49:24;;;;;;;7.82;7.18;;;;;;;;;;5077348;28;24564;-59
2021/10/12 03:51:49;;;;;;;8.30;7.50;;;;;;;;;;5067387;28;25154;-58
2021/10/12 03:54:14;;;;;;;7.43;6.55;;;;;;;;;;5083402;28;24476;-59
2021/10/12 03:56:40;;;;;;;7.43;6.73;;;;;;;;;;5074775;28;24411;-58
2021/10/12 03:59:05;;;;;;;8.00;7.20;;;;;;;;;;5082639;28;24517;-59
2021/10/12 04:01:30;;;;;;;9.03;7.43;;;;;;;;;;5087144;28;24405;-59
2021/10/12 04:03:55;;;;;;;8.10;7.30;;;;;;;;;;5101252;28;24432;-59
2021/10/12 04:06:20;;;;;;;7.60;6.90;;;;;;;;;;5072933;28;24413;-59
2021/10/12 04:08:46;;;;;;;8.30;7.50;;;;;;;;;;5076759;28;24495;-59
2021/10/12 04:11:11;;;;;;;8.10;7.30;;;;;;;;;;5078745;28;24437;-59
2021/10/12 04:13:36;;;;;;;9.07;7.85;;;;;;;;;;5082105;28;24418;-59
2021/10/12 04:16:02;;;;;;;10.63;9.37;;;;;;;;;;5085927;28;24498;-59
2021/10/12 04:18:27;;;;;;;8.40;7.60;;;;;;;;;;5085532;28;24411;-59
2021/10/12 04:20:52;;;;;;;9.53;7.83;;;;;;;;;;5078554;28;24972;-59
2021/10/12 04:23:18;;;;;;;11.13;9.20;;;;;;;;;;5076421;28;24438;-58
2021/10/12 04:25:43;;;;;;;9.25;8.15;;;;;;;;;;5083482;28;24493;-59
2021/10/12 04:28:13;;;;;;;11.47;9.80;;;;;;;;;;5083706;28;25027;-59
2021/10/12 04:30:39;;;;;;;8.65;7.85;;;;;;;;;;5074206;28;24468;-59
2021/10/12 04:33:04;;;;;;;9.82;8.82;;;;;;;;;;5077574;28;24479;-59
2021/10/12 04:35:29;;;;;;;9.35;8.40;;;;;;;;;;5077238;28;24492;-59
2021/10/12 04:37:54;;;;;;;12.07;10.88;;;;;;;;;;5065572;28;24425;-59
2021/10/12 04:40:19;;;;;;;11.23;9.60;;;;;;;;;;5083176;28;24395;-59
2021/10/12 04:42:45;;;;;;;13.00;10.50;;;;;;;;;;5079782;28;24732;-59
2021/10/12 04:45:10;;;;;;;10.00;9.10;;;;;;;;;;5077455;28;24893;-59
2021/10/12 04:47:35;;;;;;;10.60;9.60;;;;;;;;;;5069428;28;25230;-59
2021/10/12 04:50:00;;;;;;;12.87;10.60;;;;;;;;;;5064315;28;24429;-60
2021/10/12 04:52:26;;;;;;;11.90;10.30;;;;;;;;;;5072391;28;24977;-59
2021/10/12 04:54:51;;;;;;;10.90;9.70;;;;;;;;;;5068375;28;24434;-59
2021/10/12 04:57:16;;;;;;;13.13;11.27;;;;;;;;;;5077602;28;25290;-59
2021/10/12 04:59:41;;;;;;;10.60;9.27;;;;;;;;;;5071596;28;24415;-59
2021/10/12 05:02:06;;;;;;;10.25;9.30;;;;;;;;;;5078442;28;24471;-59
2021/10/12 05:04:31;;;;;;;11.32;10.13;;;;;;;;;;5071670;28;24776;-59
2021/10/12 05:06:56;;;;;;;11.10;10.10;;;;;;;;;;5066390;28;24403;-59
2021/10/12 05:09:22;;;;;;;11.00;9.82;;;;;;;;;;5072939;28;25162;-59
2021/10/12 05:11:47;;;;;;;12.10;10.50;;;;;;;;;;5101888;28;24440;-59
2021/10/12 05:14:13;;;;;;;11.18;10.07;;;;;;;;;;5085423;28;24423;-59
2021/10/12 05:16:38;;;;;;;10.20;9.10;;;;;;;;;;5082738;28;24459;-59
2021/10/12 05:19:03;;;;;;;9.83;9.03;;;;;;;;;;5085578;28;24386;-59
2021/10/12 05:21:29;;;;;;;9.90;8.90;;;;;;;;;;5074602;28;24533;-59
2021/10/12 05:23:55;;;;;;;9.43;8.52;;;;;;;;;;5069265;28;24960;-59
2021/10/12 05:26:22;;;;;;;9.70;8.80;;;;;;;;;;5075834;28;24987;-59
2021/10/12 05:28:47;;;;;;;9.95;8.95;;;;;;;;;;5090458;28;24401;-59
2021/10/12 05:31:12;;;;;;;9.20;8.20;;;;;;;;;;5106186;28;24545;-59
2021/10/12 05:33:37;;;;;;;10.30;8.80;;;;;;;;;;5106596;28;24405;-60
2021/10/12 05:36:03;;;;;;;9.33;8.50;;;;;;;;;;5102944;28;24413;-59
2021/10/12 05:38:28;;;;;;;9.27;8.47;;;;;;;;;;5082679;28;24495;-59
2021/10/12 05:40:53;;;;;;;10.70;9.70;;;;;;;;;;5060465;28;24391;-59
2021/10/12 05:43:18;;;;;;;8.93;8.20;;;;;;;;;;5074666;28;24476;-59
2021/10/12 05:45:44;;;;;;;9.70;8.70;;;;;;;;;;5083063;28;25823;-59
2021/10/12 05:48:10;;;;;;;9.60;8.70;;;;;;;;;;5060129;28;24407;-59
2021/10/12 05:50:36;;;;;;;10.57;9.48;;;;;;;;;;5062118;28;24418;-59
2021/10/12 05:58:12;;;;;;;10.57;9.48;;;;;;;;;;5066745;28;24460;-59
2021/10/12 06:00:37;;;;;;;10.07;9.18;;;;;;;;;;5075150;28;24433;-59
2021/10/12 06:03:02;;;;;;;9.00;8.10;;;;;;;;;;5068594;28;24423;-59
2021/10/12 06:05:27;;;;;;;11.30;10.30;;;;;;;;;;5077476;28;25368;-59
2021/10/12 06:07:52;;;;;;;10.07;9.17;;;;;;;;;;5074396;28;25264;-59
2021/10/12 06:10:18;;;;;;;9.87;8.90;;;;;;;;;;5073687;28;24484;-60
2021/10/12 06:12:43;;;;;;;9.90;9.10;;;;;;;;;;5080310;28;24411;-60
2021/10/12 06:15:08;;;;;;;9.18;8.27;;;;;;;;;;5072785;28;24773;-59
2021/10/12 06:17:33;;;;;;;10.00;9.10;;;;;;;;;;5105693;28;24437;-60
2021/10/12 06:19:58;;;;;;;9.40;8.50;;;;;;;;;;5097265;28;24536;-60
2021/10/12 06:22:24;;;;;;;9.70;8.80;;;;;;;;;;5086019;28;24879;-59
2021/10/12 06:24:49;;;;;;;10.43;9.43;;;;;;;;;;5084917;28;24776;-60
2021/10/12 06:27:14;;;;;;;9.25;8.45;;;;;;;;;;5082370;28;24442;-59
2021/10/12 06:29:39;;;;;;;8.93;8.10;;;;;;;;;;5068983;28;24495;-60
2021/10/12 06:32:05;;;;;;;9.10;8.20;;;;;;;;;;5071032;28;24425;-60
2021/10/12 06:34:30;;;;;;;8.27;7.57;;;;;;;;;;5075737;28;24429;-60
2021/10/12 06:36:55;;;;;;;9.00;8.10;;;;;;;;;;5070580;28;24449;-60
2021/10/12 06:42:24;;;;;;;25.00;10.30;;;;;;;;;;5054189;28;24418;-60
2021/10/12 06:45:16;;;;;;;12.37;7.60;;;;;;;;;;5069058;28;25005;-60
2021/10/12 06:47:42;;;;;;;7.60;6.23;;;;;;;;;;5069872;28;24429;-60
2021/10/12 06:50:07;;;;;;;7.87;7.07;;;;;;;;;;5061288;28;24435;-60
2021/10/12 06:52:32;;;;;;;6.00;5.50;;;;;;;;;;5061141;28;24502;-60
2021/10/12 06:54:58;;;;;;;6.00;5.50;;;;;;;;;;5076012;28;24410;-60
2021/10/12 06:57:23;;;;;;;6.90;6.30;;;;;;;;;;5083312;28;24422;-60
2021/10/12 06:59:48;;;;;;;5.60;5.20;;;;;;;;;;5082717;28;24378;-60
2021/10/12 07:02:13;;;;;;;7.47;6.20;;;;;;;;;;5080474;28;24832;-60
2021/10/12 07:04:39;;;;;;;6.70;6.00;;;;;;;;;;5079185;28;24448;-60
2021/10/12 07:07:04;;;;;;;6.20;5.60;;;;;;;;;;5079351;28;24402;-60
2021/10/12 07:09:29;;;;;;;4.80;4.30;;;;;;;;;;5084262;28;25234;-60
2021/10/12 07:11:54;;;;;;;5.63;5.07;;;;;;;;;;5067603;28;24423;-60
2021/10/12 07:14:19;;;;;;;5.50;4.70;;;;;;;;;;5060430;28;24933;-59
2021/10/12 07:16:45;;;;;;;4.55;4.13;;;;;;;;;;5058650;28;24457;-59
2021/10/12 07:19:10;;;;;;;4.10;3.80;;;;;;;;;;5062162;28;24426;-60
2021/10/12 07:21:35;;;;;;;4.63;4.10;;;;;;;;;;5065251;28;24422;-60
2021/10/12 07:24:00;;;;;;;4.10;3.70;;;;;;;;;;5058299;28;24494;-60
2021/10/12 07:26:25;;;;;;;5.20;3.20;;;;;;;;;;5083165;28;24779;-60
2021/10/12 07:28:51;;;;;;;6.50;3.80;;;;;;;;;;5102709;28;24397;-60
2021/10/12 07:31:16;;;;;;;4.25;3.60;;;;;;;;;;5102562;28;24441;-61
2021/10/12 07:33:42;;;;;;;4.00;3.60;;;;;;;;;;5083737;28;24414;-60
2021/10/12 07:36:07;;;;;;;4.73;3.40;;;;;;;;;;5081484;28;24943;-60
2021/10/12 07:38:32;;;;;;;5.70;3.20;;;;;;;;;;5079845;28;24452;-61
2021/10/12 07:40:57;;;;;;;4.18;2.90;;;;;;;;;;5078429;28;24395;-61
2021/10/12 07:43:23;;;;;;;6.50;3.87;;;;;;;;;;5079962;28;24418;-60
2021/10/12 07:45:48;;;;;;;4.63;3.10;;;;;;;;;;5083941;28;24600;-61
2021/10/12 07:48:14;;;;;;;4.25;3.10;;;;;;;;;;5078209;28;24513;-60
2021/10/12 07:50:39;;;;;;;3.75;3.28;;;;;;;;;;5082692;28;24779;-60
2021/10/12 07:53:05;;;;;;;3.20;3.00;;;;;;;;;;5078066;28;24500;-61
2021/10/12 07:57:57;;;;;;;5.15;3.20;;;;;;;;;;5081282;28;24390;-60
2021/10/12 08:00:24;;;;;;;3.90;3.13;;;;;;;;;;5083334;28;24453;-60
2021/10/12 08:02:49;;;;;;;3.72;3.17;;;;;;;;;;5083322;28;24402;-61
2021/10/12 08:05:14;;;;;;;3.72;2.70;;;;;;;;;;5078968;28;24472;-61
2021/10/12 08:07:39;;;;;;;4.30;3.10;;;;;;;;;;5083564;28;24477;-61
2021/10/12 08:10:05;;;;;;;4.30;2.80;;;;;;;;;;5081179;28;24463;-61
2021/10/12 08:12:30;;;;;;;3.20;2.90;;;;;;;;;;5082852;28;24386;-60
2021/10/12 08:14:59;;;;;;;4.43;3.00;;;;;;;;;;5081324;28;24406;-61
2021/10/12 08:17:24;;;;;;;3.50;2.60;;;;;;;;;;5080959;28;24429;-60
2021/10/12 08:19:49;;;;;;;3.00;2.70;;;;;;;;;;5079339;28;24425;-59
2021/10/12 08:22:15;;;;;;;4.23;2.60;;;;;;;;;;5082666;28;24400;-59
2021/10/12 08:24:40;;;;;;;6.40;3.25;;;;;;;;;;5086506;28;24440;-59
2021/10/12 08:27:05;;;;;;;3.30;3.00;;;;;;;;;;5081579;28;24414;-59
2021/10/12 08:29:30;;;;;;;3.40;2.50;;;;;;;;;;5082700;28;24970;-59
2021/10/12 08:31:56;;;;;;;3.10;2.40;;;;;;;;;;5081211;28;24421;-59
2021/10/12 08:34:21;;;;;;;3.10;2.70;;;;;;;;;;5077134;28;24408;-59
2021/10/12 08:36:46;;;;;;;2.95;2.30;;;;;;;;;;5077470;28;24651;-59
2021/10/12 08:39:11;;;;;;;3.40;2.40;;;;;;;;;;5083025;28;24407;-59
2021/10/12 08:41:56;;;;;;;2.67;2.40;;;;;;;;;;5082888;28;24501;-61
2021/10/12 08:44:22;;;;;;;6.25;2.70;;;;;;;;;;5066700;28;25009;-60
2021/10/12 08:46:48;;;;;;;3.57;2.50;;;;;;;;;;5067613;28;24411;-60
2021/10/12 08:49:13;;;;;;;2.85;2.65;;;;;;;;;;5062473;28;24414;-60
2021/10/12 08:51:40;;;;;;;3.40;2.50;;;;;;;;;;5064836;28;24604;-59
2021/10/12 08:54:06;;;;;;;3.78;2.60;;;;;;;;;;5065016;28;24410;-59
2021/10/12 08:56:31;;;;;;;3.83;2.57;;;;;;;;;;5073052;28;24411;-60
2021/10/12 08:58:56;;;;;;;4.80;3.20;;;;;;;;;;5081433;28;24397;-60
2021/10/12 09:01:22;;;;;;;3.00;2.60;;;;;;;;;;5081576;28;24808;-60
2021/10/12 09:06:22;;;;;;;2.90;2.60;;;;;;;;;;5085407;28;24447;-60
2021/10/12 09:08:47;;;;;;;3.30;3.00;;;;;;;;;;5086154;28;24489;-60
2021/10/12 09:11:22;;;;;;;3.80;2.60;;;;;;;;;;5085047;28;24493;-60
2021/10/12 09:13:48;;;;;;;3.08;2.42;;;;;;;;;;5086672;28;24469;-61
2021/10/12 09:16:15;;;;;;;3.83;2.50;;;;;;;;;;5081078;28;24814;-60
2021/10/12 09:18:46;;;;;;;3.70;2.80;;;;;;;;;;5081089;28;24474;-60
2021/10/12 09:21:23;;;;;;;3.20;2.58;;;;;;;;;;5082081;28;24431;-60
2021/10/12 09:23:48;;;;;;;2.67;2.47;;;;;;;;;;5089804;28;24978;-60
2021/10/12 09:26:21;;;;;;;3.50;2.60;;;;;;;;;;5103465;28;24873;-60
2021/10/12 09:28:46;;;;;;;3.40;2.40;;;;;;;;;;5101147;28;24458;-60
2021/10/12 09:31:11;;;;;;;3.00;2.60;;;;;;;;;;5086081;28;24873;-60
2021/10/12 09:33:49;;;;;;;3.17;2.70;;;;;;;;;;5086137;28;24463;-60
2021/10/12 09:36:34;;;;;;;3.30;3.00;;;;;;;;;;5086292;28;24443;-60
2021/10/12 09:39:00;;;;;;;2.88;2.58;;;;;;;;;;5085486;28;24422;-61
2021/10/12 09:41:26;;;;;;;2.70;2.50;;;;;;;;;;5064162;28;24505;-60
2021/10/12 09:43:52;;;;;;;3.30;2.70;;;;;;;;;;5060247;28;24963;-60
2021/10/12 09:46:20;;;;;;;3.43;2.70;;;;;;;;;;5063758;28;24399;-60
2021/10/12 09:48:46;;;;;;;3.65;3.00;;;;;;;;;;5068102;28;24449;-60
2021/10/12 09:51:15;;;;;;;3.00;2.70;;;;;;;;;;5069900;28;24438;-60
2021/10/12 09:53:42;;;;;;;4.25;3.30;;;;;;;;;;5061438;28;24411;-60
2021/10/12 09:56:08;;;;;;;3.95;3.35;;;;;;;;;;5063544;28;24482;-60
2021/10/12 09:58:33;;;;;;;3.78;3.47;;;;;;;;;;5064446;28;24571;-60
2021/10/12 10:01:00;;;;;;;3.57;3.27;;;;;;;;;;5071900;28;24474;-60
2021/10/12 10:03:26;;;;;;;3.20;2.90;;;;;;;;;;5085108;28;24433;-60
2021/10/12 10:05:52;;;;;;;3.67;3.38;;;;;;;;;;5081645;28;24406;-60
2021/10/12 10:08:17;;;;;;;3.63;3.35;;;;;;;;;;5081340;28;24398;-61
2021/10/12 10:10:43;;;;;;;3.60;3.30;;;;;;;;;;5084242;28;24430;-60
2021/10/12 10:13:08;;;;;;;3.60;3.30;;;;;;;;;;5063118;28;24689;-61
2021/10/12 10:15:34;;;;;;;3.83;3.28;;;;;;;;;;5064902;28;24456;-60
2021/10/12 10:17:59;;;;;;;3.73;3.43;;;;;;;;;;5061075;28;24985;-60
2021/10/12 10:20:25;;;;;;;4.65;4.25;;;;;;;;;;5063249;28;24454;-61
2021/10/12 10:22:52;;;;;;;3.20;2.90;;;;;;;;;;5078488;28;24424;-61
2021/10/12 10:25:34;;;;;;;3.00;2.70;;;;;;;;;;5080918;28;24447;-60
2021/10/12 10:28:18;;;;;;;3.72;3.00;;;;;;;;;;5079859;28;24390;-60
2021/10/12 10:30:44;;;;;;;4.70;3.70;;;;;;;;;;5079304;28;24441;-60
2021/10/12 10:33:24;;;;;;;5.13;3.08;;;;;;;;;;5082912;28;24409;-60
2021/10/12 10:35:55;;;;;;;3.50;3.20;;;;;;;;;;5084848;28;24413;-60
2021/10/12 10:38:20;;;;;;;3.80;2.90;;;;;;;;;;5084741;28;24967;-60
2021/10/12 10:40:46;;;;;;;4.43;3.20;;;;;;;;;;5081570;28;24919;-61
2021/10/12 10:43:11;;;;;;;3.28;2.85;;;;;;;;;;5079244;28;24816;-60
2021/10/12 10:45:41;;;;;;;2.53;2.33;;;;;;;;;;5084911;28;24980;-60
2021/10/12 10:48:08;;;;;;;2.30;2.10;;;;;;;;;;5083148;28;24752;-60
2021/10/12 10:50:33;;;;;;;2.30;2.10;;;;;;;;;;5080945;28;24803;-60
2021/10/12 10:53:00;;;;;;;2.00;1.70;;;;;;;;;;5078039;28;24483;-61
2021/10/12 10:55:29;;;;;;;2.63;1.90;;;;;;;;;;5062263;28;24414;-60
2021/10/12 10:58:12;;;;;;;2.60;2.15;;;;;;;;;;5062261;28;24446;-60
2021/10/12 11:00:38;;;;;;;2.20;1.80;;;;;;;;;;5064473;28;24443;-60
2021/10/12 11:03:03;;;;;;;2.60;1.98;;;;;;;;;;5062573;28;24468;-61
2021/10/12 11:05:28;;;;;;;2.78;1.77;;;;;;;;;;5074959;28;24421;-61
2021/10/12 11:08:05;;;;;;;1.90;1.70;;;;;;;;;;5080572;28;24482;-60
2021/10/12 11:10:30;;;;;;;1.80;1.40;;;;;;;;;;5081942;28;24448;-60
2021/10/12 11:12:55;;;;;;;2.30;1.50;;;;;;;;;;5082200;28;24784;-59
2021/10/12 11:15:20;;;;;;;2.85;1.80;;;;;;;;;;5082437;28;24971;-59
2021/10/12 11:18:02;;;;;;;1.95;1.85;;;;;;;;;;5082217;28;25247;-60
2021/10/12 11:20:37;;;;;;;2.40;1.55;;;;;;;;;;5084048;28;24463;-59
2021/10/12 11:23:02;;;;;;;1.50;1.40;;;;;;;;;;5102572;28;24965;-59
2021/10/12 11:25:31;;;;;;;1.60;1.30;;;;;;;;;;5097039;28;24525;-59
2021/10/12 11:28:05;;;;;;;1.30;1.20;;;;;;;;;;5080402;28;24731;-60
2021/10/12 11:30:32;;;;;;;1.40;1.30;;;;;;;;;;5078359;28;24465;-59
2021/10/12 11:32:57;;;;;;;1.60;1.17;;;;;;;;;;5082166;28;24433;-60
2021/10/12 11:35:31;;;;;;;1.20;1.10;;;;;;;;;;5082578;28;24426;-60
2021/10/12 11:37:56;;;;;;;1.20;1.10;;;;;;;;;;5062160;28;24804;-60
2021/10/12 11:40:24;;;;;;;1.63;1.50;;;;;;;;;;5061966;28;24928;-59
2021/10/12 11:42:51;;;;;;;1.92;1.60;;;;;;;;;;5060097;28;24457;-60
2021/10/12 11:45:17;;;;;;;1.75;1.65;;;;;;;;;;5066185;28;24473;-59
2021/10/12 11:47:43;;;;;;;2.90;1.60;;;;;;;;;;5078288;28;24414;-60
2021/10/12 11:50:09;;;;;;;1.58;1.48;;;;;;;;;;5078721;28;24939;-60
2021/10/12 11:52:34;;;;;;;1.63;1.52;;;;;;;;;;5083613;28;24418;-60
2021/10/12 11:55:03;;;;;;;1.50;1.40;;;;;;;;;;5081714;28;24931;-60
2021/10/12 11:57:28;;;;;;;2.30;1.70;;;;;;;;;;5077996;28;24502;-60
2021/10/12 11:59:55;;;;;;;2.95;1.80;;;;;;;;;;5081460;28;24493;-60
2021/10/12 12:02:21;;;;;;;1.50;1.40;;;;;;;;;;5083138;28;25156;-60
2021/10/12 12:04:47;;;;;;;1.75;1.65;;;;;;;;;;5083550;28;24509;-60
2021/10/12 12:07:13;;;;;;;3.10;1.60;;;;;;;;;;5078425;28;24711;-60
2021/10/12 12:09:39;;;;;;;2.67;1.60;;;;;;;;;;5082894;28;24807;-60
2021/10/12 12:12:07;;;;;;;2.10;1.60;;;;;;;;;;5081506;28;24418;-60
2021/10/12 12:14:33;;;;;;;2.20;1.75;;;;;;;;;;5082908;28;25004;-60
2021/10/12 12:17:09;;;;;;;1.80;1.70;;;;;;;;;;5081413;28;24429;-60
2021/10/12 12:19:45;;;;;;;2.50;2.30;;;;;;;;;;5072437;28;24975;-60
2021/10/12 12:22:14;;;;;;;2.30;2.10;;;;;;;;;;5059027;28;24929;-60
2021/10/12 12:24:51;;;;;;;2.20;2.00;;;;;;;;;;5063044;28;24401;-60
2021/10/12 12:27:16;;;;;;;1.70;1.60;;;;;;;;;;5062895;28;24414;-60
2021/10/12 12:29:41;;;;;;;1.80;1.60;;;;;;;;;;5072116;28;24430;-60
2021/10/12 12:32:12;;;;;;;1.40;1.30;;;;;;;;;;5077282;28;24438;-60
2021/10/12 12:34:38;;;;;;;1.80;1.70;;;;;;;;;;5082888;28;24506;-60
2021/10/12 12:37:05;;;;;;;2.38;1.42;;;;;;;;;;5082759;28;24494;-60
2021/10/12 12:39:34;;;;;;;1.90;1.80;;;;;;;;;;5081475;28;24479;-60
2021/10/12 12:42:00;;;;;;;2.30;1.50;;;;;;;;;;5066662;28;24529;-60
2021/10/12 12:44:25;;;;;;;2.30;2.10;;;;;;;;;;5057395;28;24859;-60
2021/10/12 12:46:54;;;;;;;1.80;1.70;;;;;;;;;;5059502;28;24422;-60
2021/10/12 12:49:19;;;;;;;2.00;1.90;;;;;;;;;;5062873;28;24754;-60
2021/10/12 12:51:48;;;;;;;2.40;2.00;;;;;;;;;;5070667;28;24430;-60
2021/10/12 12:54:32;;;;;;;2.23;2.10;;;;;;;;;;5077155;28;24501;-60
2021/10/12 12:57:14;;;;;;;2.13;1.93;;;;;;;;;;5081097;28;24504;-60
2021/10/12 12:59:40;;;;;;;2.08;1.98;;;;;;;;;;5082803;28;24712;-60
2021/10/12 13:02:15;;;;;;;2.20;2.10;;;;;;;;;;5074467;28;24433;-60
2021/10/12 13:04:40;;;;;;;2.50;2.30;;;;;;;;;;5062820;28;24984;-60
2021/10/12 13:07:05;;;;;;;2.30;2.20;;;;;;;;;;5057541;28;24486;-61
2021/10/12 13:09:31;;;;;;;2.30;2.10;;;;;;;;;;5057355;28;24386;-60
2021/10/12 13:11:57;;;;;;;2.20;2.10;;;;;;;;;;5060723;28;24429;-60
2021/10/12 13:14:22;;;;;;;2.50;2.00;;;;;;;;;;5067501;28;24785;-60
2021/10/12 13:16:48;;;;;;;2.03;1.92;;;;;;;;;;5082931;28;24974;-61
2021/10/12 13:19:13;;;;;;;1.92;1.80;;;;;;;;;;5096010;28;24398;-60
2021/10/12 13:21:38;;;;;;;3.10;2.80;;;;;;;;;;5097539;28;24402;-60
2021/10/12 13:24:03;;;;;;;2.10;2.00;;;;;;;;;;5103187;28;24963;-60
2021/10/12 13:26:28;;;;;;;3.47;2.30;;;;;;;;;;5099140;28;24423;-60
2021/10/12 13:28:54;;;;;;;2.20;2.10;;;;;;;;;;5076637;28;24414;-61
2021/10/12 13:31:19;;;;;;;3.90;3.60;;;;;;;;;;5080692;28;24499;-61
2021/10/12 13:33:44;;;;;;;3.73;3.53;;;;;;;;;;5082218;28;24749;-60
2021/10/12 13:36:09;;;;;;;13.63;12.60;;;;;;;;;;5086195;28;24473;-60
2021/10/12 13:38:34;;;;;;;4.77;4.37;;;;;;;;;;5084266;28;24549;-60
2021/10/12 13:41:00;;;;;;;3.43;3.13;;;;;;;;;;5086194;28;24494;-60
2021/10/12 13:43:25;;;;;;;3.80;3.40;;;;;;;;;;5080741;28;24474;-60
2021/10/12 13:45:50;;;;;;;3.47;3.17;;;;;;;;;;5080585;28;24397;-60
2021/10/12 13:48:15;;;;;;;8.68;7.88;;;;;;;;;;5080342;28;24475;-61
2021/10/12 13:50:41;;;;;;;7.10;6.50;;;;;;;;;;5082968;28;24430;-61
2021/10/12 13:53:06;;;;;;;7.63;7.00;;;;;;;;;;5084421;28;24940;-60
2021/10/12 13:55:31;;;;;;;9.50;8.63;;;;;;;;;;5083790;28;24433;-60
2021/10/12 13:57:59;;;;;;;7.78;7.07;;;;;;;;;;5081512;28;24393;-60
2021/10/12 14:00:24;;;;;;;14.32;12.93;;;;;;;;;;5066973;28;24407;-60
2021/10/12 14:02:51;;;;;;;7.80;7.13;;;;;;;;;;5065831;28;24402;-60
2021/10/12 14:05:16;;;;;;;5.78;5.28;;;;;;;;;;5061319;28;24390;-60
2021/10/12 14:07:41;;;;;;;6.88;6.28;;;;;;;;;;5061469;28;24391;-59
2021/10/12 14:10:08;;;;;;;7.60;7.00;;;;;;;;;;5073329;28;24455;-60
2021/10/12 14:12:35;;;;;;;5.35;4.95;;;;;;;;;;5084917;28;24412;-59
2021/10/12 14:15:01;;;;;;;3.85;3.50;;;;;;;;;;5083651;28;24399;-60
2021/10/12 14:17:27;;;;;;;3.05;2.85;;;;;;;;;;5098984;28;24511;-59
2021/10/12 14:19:54;;;;;;;2.15;2.05;;;;;;;;;;5103661;28;24397;-59
2021/10/12 14:22:19;;;;;;;2.55;1.70;;;;;;;;;;5093243;28;25209;-59
2021/10/12 14:24:44;;;;;;;2.10;2.00;;;;;;;;;;5077357;28;24526;-59
2021/10/12 14:27:09;;;;;;;1.60;1.50;;;;;;;;;;5064895;28;24777;-59
2021/10/12 14:29:34;;;;;;;1.80;1.70;;;;;;;;;;5062677;28;24561;-59
2021/10/12 14:32:00;;;;;;;1.80;1.40;;;;;;;;;;5059463;28;24435;-59
2021/10/12 14:34:25;;;;;;;1.42;1.33;;;;;;;;;;5060980;28;24453;-59
2021/10/12 14:36:51;;;;;;;1.30;1.20;;;;;;;;;;5082211;28;24965;-60
2021/10/12 14:39:16;;;;;;;1.70;1.30;;;;;;;;;;5084796;28;24378;-60
2021/10/12 14:41:41;;;;;;;1.20;1.10;;;;;;;;;;5085043;28;24509;-60
2021/10/12 14:44:07;;;;;;;1.00;1.00;;;;;;;;;;5071053;28;24979;-60
2021/10/12 14:46:32;;;;;;;2.00;1.27;;;;;;;;;;5065358;28;24932;-60
2021/10/12 14:48:59;;;;;;;1.33;1.10;;;;;;;;;;5059332;28;24514;-63